Time;durP1;ratioP1;P1;durP2;ratioP2;P2;SDS_P1;SDS_P2;PMS_P1;PMS_P2;Temp;Humidity;BMP_temperature;BMP_pressure;BME280_temperature;BME280_humidity;BME280_pressure;Samples;Min_cycle;Max_cycle;Signal;HPM_P1;HPM_P2
2022/09/30 00:01:40;;;;;;;7.40;6.80;;;8.80;99.90;;;;;;5020313;28;20499;-70
2022/09/30 00:04:08;;;;;;;7.27;6.57;;;8.80;99.90;;;;;;5011517;28;20199;-69
2022/09/30 00:06:34;;;;;;;10.77;6.73;;;8.70;99.90;;;;;;5015347;28;20937;-69
2022/09/30 00:09:01;;;;;;;9.60;7.07;;;8.70;99.90;;;;;;5014245;28;20438;-69
2022/09/30 00:11:29;;;;;;;7.50;6.63;;;8.80;99.90;;;;;;5011674;28;20183;-70
2022/09/30 00:13:57;;;;;;;7.43;6.13;;;8.90;99.90;;;;;;5004764;28;20520;-69
2022/09/30 00:16:25;;;;;;;7.53;6.83;;;8.80;99.90;;;;;;5020093;28;20541;-68
2022/09/30 00:18:54;;;;;;;12.30;6.83;;;8.80;99.90;;;;;;5012135;28;20803;-70
2022/09/30 00:21:20;;;;;;;6.90;6.07;;;8.80;99.90;;;;;;5016715;28;20497;-70
2022/09/30 00:23:45;;;;;;;7.83;6.33;;;8.80;99.90;;;;;;5012488;28;20464;-69
2022/09/30 00:26:14;;;;;;;8.23;7.37;;;8.80;99.90;;;;;;5019286;28;20438;-71
2022/09/30 00:28:40;;;;;;;7.70;6.53;;;8.90;99.90;;;;;;5003866;28;20646;-68
2022/09/30 00:31:10;;;;;;;6.73;6.07;;;8.80;99.90;;;;;;5017961;28;20443;-71
2022/09/30 00:33:35;;;;;;;9.00;7.80;;;8.90;99.90;;;;;;5011782;28;20525;-68
2022/09/30 00:36:02;;;;;;;6.87;6.37;;;8.90;99.90;;;;;;5019848;28;20552;-69
2022/09/30 00:38:28;;;;;;;6.97;6.30;;;9.00;99.90;;;;;;5009944;28;20724;-70
2022/09/30 00:40:55;;;;;;;9.70;7.00;;;9.20;99.90;;;;;;5008976;28;20602;-69
2022/09/30 00:43:41;;;;;;;7.73;6.50;;;9.10;99.90;;;;;;5009700;28;20588;-68
2022/09/30 00:46:16;;;;;;;8.10;6.73;;;9.10;99.90;;;;;;5015849;28;20953;-69
2022/09/30 00:48:42;;;;;;;7.27;6.50;;;9.00;99.90;;;;;;5011311;28;20429;-69
2022/09/30 00:51:08;;;;;;;9.80;8.80;;;9.00;99.90;;;;;;5011879;28;20794;-69
2022/09/30 00:53:51;;;;;;;7.13;6.40;;;9.00;99.90;;;;;;5011628;28;20438;-69
2022/09/30 00:56:22;;;;;;;8.20;7.27;;;9.00;99.90;;;;;;5015312;28;20461;-72
2022/09/30 00:58:51;;;;;;;7.83;6.40;;;9.10;99.90;;;;;;5009533;28;20445;-68
2022/09/30 01:01:17;;;;;;;8.53;7.57;;;9.10;99.90;;;;;;5011470;28;20496;-70
2022/09/30 01:04:00;;;;;;;8.40;7.10;;;9.10;99.90;;;;;;5023466;28;20437;-69
2022/09/30 01:06:25;;;;;;;7.80;7.00;;;9.10;99.90;;;;;;5014726;28;20428;-69
2022/09/30 01:08:51;;;;;;;10.60;7.07;;;9.10;99.90;;;;;;5012787;28;20948;-70
2022/09/30 01:11:17;;;;;;;9.37;7.33;;;9.20;99.90;;;;;;5016336;28;20495;-71
2022/09/30 01:13:48;;;;;;;7.57;6.77;;;9.30;99.90;;;;;;5009649;28;21104;-69
2022/09/30 01:16:40;;;;;;;7.10;6.30;;;9.30;99.90;;;;;;5018655;28;20967;-69
2022/09/30 01:19:28;;;;;;;8.03;7.30;;;9.30;99.90;;;;;;4987815;28;20457;-68
2022/09/30 01:22:13;;;;;;;7.83;7.03;;;9.20;99.90;;;;;;5011664;28;20437;-69
2022/09/30 01:24:45;;;;;;;8.10;7.30;;;9.20;99.90;;;;;;5018569;28;20525;-68
2022/09/30 01:27:42;;;;;;;7.63;6.60;;;9.10;99.90;;;;;;5019923;28;21125;-68
2022/09/30 01:30:19;;;;;;;9.60;7.77;;;9.10;99.90;;;;;;5014756;28;20502;-68
2022/09/30 01:32:59;;;;;;;11.40;7.30;;;9.00;99.90;;;;;;5002200;28;20444;-70
2022/09/30 01:35:40;;;;;;;8.37;7.10;;;9.00;99.90;;;;;;5018075;28;21049;-67
2022/09/30 01:38:17;;;;;;;13.03;9.20;;;9.10;99.90;;;;;;5023534;28;20449;-68
2022/09/30 01:40:55;;;;;;;8.57;7.87;;;9.10;99.90;;;;;;5019975;28;20660;-69
2022/09/30 01:43:47;;;;;;;12.53;8.30;;;9.10;99.90;;;;;;5009794;28;20437;-69
2022/09/30 01:46:27;;;;;;;9.40;8.50;;;9.10;99.90;;;;;;5010699;28;20961;-70
2022/09/30 01:49:33;;;;;;;10.03;8.40;;;9.10;99.90;;;;;;5006400;28;20930;-69
2022/09/30 01:52:22;;;;;;;10.87;9.47;;;9.10;99.90;;;;;;5002776;28;20477;-68
2022/09/30 01:55:11;;;;;;;10.33;9.00;;;9.00;99.90;;;;;;5017914;28;20523;-69
2022/09/30 01:57:56;;;;;;;9.00;8.10;;;9.10;99.90;;;;;;5020197;28;20441;-70
2022/09/30 02:00:21;;;;;;;10.67;7.57;;;9.10;99.90;;;;;;5017716;28;20464;-70
2022/09/30 02:03:03;;;;;;;17.90;11.20;;;9.10;99.90;;;;;;5022886;28;20437;-69
2022/09/30 02:05:32;;;;;;;13.33;10.10;;;9.10;99.90;;;;;;5020556;28;20230;-69
2022/09/30 02:08:01;;;;;;;10.77;9.57;;;9.10;99.90;;;;;;5019353;28;20564;-68
2022/09/30 02:10:33;;;;;;;12.37;9.73;;;9.10;99.90;;;;;;5019832;28;20493;-69
2022/09/30 02:13:26;;;;;;;10.33;8.90;;;9.20;99.90;;;;;;5025357;28;20445;-70
2022/09/30 02:15:57;;;;;;;9.67;8.00;;;9.20;99.90;;;;;;5002587;28;20552;-69
2022/09/30 02:18:36;;;;;;;9.80;7.73;;;9.20;99.90;;;;;;5015692;28;20473;-70
2022/09/30 02:21:05;;;;;;;8.40;7.20;;;9.20;99.90;;;;;;5013167;28;20471;-69
2022/09/30 02:23:34;;;;;;;8.80;7.97;;;9.20;99.90;;;;;;5013548;28;20437;-69
2022/09/30 02:26:17;;;;;;;8.93;8.10;;;9.20;99.90;;;;;;5013097;28;20464;-70
2022/09/30 02:29:03;;;;;;;9.53;7.50;;;9.20;99.90;;;;;;5014046;28;20441;-69
2022/09/30 02:31:32;;;;;;;8.70;7.90;;;9.20;99.90;;;;;;5012118;28;20540;-68
2022/09/30 02:34:16;;;;;;;10.70;8.70;;;9.10;99.90;;;;;;5014146;28;20441;-68
2022/09/30 02:37:25;;;;;;;9.33;8.17;;;9.10;99.90;;;;;;5022077;28;20512;-69
2022/09/30 02:40:12;;;;;;;9.50;8.50;;;9.10;99.90;;;;;;5012615;28;20973;-68
2022/09/30 02:42:40;;;;;;;9.80;7.80;;;9.00;99.90;;;;;;5013899;28;20433;-69
2022/09/30 02:45:09;;;;;;;7.17;6.57;;;9.00;99.90;;;;;;5014003;28;20548;-72
2022/09/30 02:48:02;;;;;;;7.03;6.40;;;9.20;99.90;;;;;;5012881;28;20990;-69
2022/09/30 02:50:48;;;;;;;8.30;6.90;;;9.20;99.90;;;;;;5012552;28;20477;-69
2022/09/30 02:53:26;;;;;;;8.53;7.60;;;9.10;99.90;;;;;;5013566;28;20465;-69
2022/09/30 02:56:26;;;;;;;7.93;7.17;;;9.10;99.90;;;;;;5002960;28;20474;-69
2022/09/30 02:58:52;;;;;;;11.60;6.37;;;9.00;99.90;;;;;;5007256;28;20472;-68
2022/09/30 03:01:18;;;;;;;7.90;7.10;;;9.00;99.90;;;;;;5012986;28;20501;-71
2022/09/30 03:03:55;;;;;;;7.87;7.17;;;8.90;99.90;;;;;;5012018;28;21022;-69
2022/09/30 03:06:21;;;;;;;8.27;6.10;;;8.90;99.90;;;;;;5013524;28;20963;-69
2022/09/30 03:08:47;;;;;;;8.07;6.47;;;8.90;99.90;;;;;;5009335;28;20447;-68
2022/09/30 03:11:17;;;;;;;7.60;7.00;;;8.90;99.90;;;;;;5009808;28;20540;-69
2022/09/30 03:14:09;;;;;;;7.00;6.40;;;8.90;99.90;;;;;;5013273;28;20233;-68
2022/09/30 03:17:09;;;;;;;8.20;7.00;;;8.90;99.90;;;;;;5011375;28;20797;-69
2022/09/30 03:19:34;;;;;;;8.50;7.70;;;8.80;99.90;;;;;;5015523;28;20441;-70
2022/09/30 03:22:18;;;;;;;7.23;6.53;;;8.90;99.90;;;;;;5020560;28;20442;-69
2022/09/30 03:24:46;;;;;;;7.30;6.60;;;8.90;99.90;;;;;;5007234;28;20217;-69
2022/09/30 03:27:26;;;;;;;7.20;6.50;;;9.00;99.90;;;;;;5011898;28;20491;-69
2022/09/30 03:30:06;;;;;;;11.23;8.63;;;9.00;99.90;;;;;;5012681;28;20433;-69
2022/09/30 03:32:50;;;;;;;7.73;7.03;;;8.90;99.90;;;;;;5011304;28;20559;-69
2022/09/30 03:35:43;;;;;;;8.47;7.67;;;8.80;99.90;;;;;;5013050;28;20937;-69
2022/09/30 03:38:18;;;;;;;7.70;6.97;;;8.80;99.90;;;;;;5011523;28;20442;-70
2022/09/30 03:41:21;;;;;;;8.63;7.73;;;8.70;99.90;;;;;;5012083;28;20496;-68
2022/09/30 03:43:56;;;;;;;11.83;6.20;;;8.60;99.90;;;;;;5011265;28;20442;-69
2022/09/30 03:46:28;;;;;;;10.33;6.53;;;8.60;99.90;;;;;;5010850;28;20465;-68
2022/09/30 03:48:58;;;;;;;8.67;7.80;;;8.70;99.90;;;;;;5012141;28;20434;-68
2022/09/30 03:51:24;;;;;;;8.33;7.53;;;8.80;99.90;;;;;;5012360;28;20454;-69
2022/09/30 03:53:52;;;;;;;9.27;8.43;;;8.80;99.90;;;;;;5012190;28;20438;-68
2022/09/30 03:56:28;;;;;;;10.10;7.50;;;8.70;99.90;;;;;;5010215;28;20872;-69
2022/09/30 03:58:55;;;;;;;10.03;8.93;;;8.60;99.90;;;;;;5010835;28;20460;-68
2022/09/30 04:01:22;;;;;;;9.07;8.07;;;8.60;99.90;;;;;;5011293;28;20466;-69
2022/09/30 04:03:51;;;;;;;9.27;7.90;;;8.60;99.90;;;;;;5011693;28;20962;-68
2022/09/30 04:06:17;;;;;;;9.00;8.10;;;8.70;99.90;;;;;;5011301;28;20514;-69
2022/09/30 04:08:43;;;;;;;7.77;7.07;;;8.70;99.90;;;;;;5011570;28;20920;-68
2022/09/30 04:11:09;;;;;;;12.17;7.93;;;8.70;99.90;;;;;;5011757;28;20525;-70
2022/09/30 04:13:35;;;;;;;8.83;7.63;;;8.80;99.90;;;;;;5012279;28;20179;-70
2022/09/30 04:16:00;;;;;;;9.70;8.70;;;8.80;99.90;;;;;;5011312;28;20461;-68
2022/09/30 04:18:26;;;;;;;11.97;9.40;;;8.80;99.90;;;;;;5010389;28;20198;-68
2022/09/30 04:20:52;;;;;;;11.27;9.13;;;8.80;99.90;;;;;;5011546;28;20474;-69
2022/09/30 04:23:17;;;;;;;12.27;9.70;;;8.80;99.90;;;;;;5012146;28;20210;-68
2022/09/30 04:25:43;;;;;;;11.40;9.90;;;8.80;99.90;;;;;;5011722;28;20596;-68
2022/09/30 04:28:08;;;;;;;10.17;9.27;;;8.80;99.90;;;;;;5011092;28;20203;-72
2022/09/30 04:30:34;;;;;;;11.00;9.80;;;8.70;99.90;;;;;;5009467;28;20718;-68
2022/09/30 04:32:59;;;;;;;14.20;10.43;;;8.60;99.90;;;;;;5011941;28;20187;-69
2022/09/30 04:35:28;;;;;;;15.27;10.53;;;8.60;99.90;;;;;;5011766;28;20208;-70
2022/09/30 04:37:53;;;;;;;11.20;9.63;;;8.60;99.90;;;;;;5008072;28;20179;-68
2022/09/30 04:40:19;;;;;;;10.47;9.37;;;8.50;99.90;;;;;;5009604;28;20463;-72
2022/09/30 04:42:46;;;;;;;12.77;9.00;;;8.60;99.90;;;;;;5011272;28;20254;-68
2022/09/30 04:45:12;;;;;;;11.70;9.33;;;8.60;99.90;;;;;;5011604;28;20831;-69
2022/09/30 04:47:43;;;;;;;9.63;8.63;;;8.50;99.90;;;;;;5008628;28;20481;-69
2022/09/30 04:50:08;;;;;;;12.27;9.23;;;8.50;99.90;;;;;;5003789;28;20438;-68
2022/09/30 04:52:34;;;;;;;8.70;8.00;;;8.50;99.90;;;;;;5010490;28;20497;-69
2022/09/30 04:54:59;;;;;;;8.50;7.60;;;8.40;99.90;;;;;;5010987;28;20211;-68
2022/09/30 04:57:26;;;;;;;12.43;8.57;;;8.20;99.90;;;;;;5010513;28;20186;-69
2022/09/30 04:59:52;;;;;;;10.83;9.03;;;8.20;99.90;;;;;;5010365;28;20289;-69
2022/09/30 05:02:17;;;;;;;10.40;9.37;;;8.10;99.90;;;;;;5010179;28;20449;-69
2022/09/30 05:04:43;;;;;;;10.10;9.07;;;8.10;99.90;;;;;;5011277;28;20458;-69
2022/09/30 05:07:08;;;;;;;9.47;8.47;;;8.00;99.90;;;;;;5013326;28;20174;-68
2022/09/30 05:09:35;;;;;;;8.90;8.00;;;8.00;99.90;;;;;;5013172;28;20179;-69
2022/09/30 05:12:02;;;;;;;13.47;9.57;;;8.00;99.90;;;;;;5022659;28;20173;-68
2022/09/30 05:14:28;;;;;;;13.00;9.27;;;8.10;99.90;;;;;;5021263;28;20827;-70
2022/09/30 05:16:54;;;;;;;11.30;10.20;;;8.10;99.90;;;;;;5017938;28;20796;-68
2022/09/30 05:19:20;;;;;;;11.27;9.67;;;8.00;99.90;;;;;;5009002;28;20448;-68
2022/09/30 05:21:45;;;;;;;13.40;9.60;;;8.00;99.90;;;;;;5010426;28;20211;-68
2022/09/30 05:24:11;;;;;;;12.73;8.87;;;8.00;99.90;;;;;;5003637;28;20465;-70
2022/09/30 05:26:38;;;;;;;10.33;9.07;;;8.10;99.90;;;;;;5015106;28;20195;-69
2022/09/30 05:29:04;;;;;;;11.67;8.83;;;8.10;99.90;;;;;;5018775;28;20177;-69
2022/09/30 05:31:30;;;;;;;11.70;9.50;;;8.10;99.90;;;;;;5014039;28;20445;-72
2022/09/30 05:33:55;;;;;;;11.40;9.17;;;8.10;99.90;;;;;;5013071;28;20452;-68
2022/09/30 05:36:21;;;;;;;10.73;8.93;;;8.00;99.90;;;;;;5020580;28;20190;-69
2022/09/30 05:38:50;;;;;;;15.30;10.70;;;8.00;99.90;;;;;;5016198;28;20210;-69
2022/09/30 05:41:18;;;;;;;11.33;9.90;;;8.00;99.90;;;;;;5023637;28;20202;-68
2022/09/30 05:43:46;;;;;;;11.07;9.50;;;8.10;99.90;;;;;;5014867;28;20436;-69
2022/09/30 05:46:13;;;;;;;13.97;10.57;;;8.10;99.90;;;;;;5017370;28;20783;-68
2022/09/30 05:48:39;;;;;;;10.97;9.80;;;8.10;99.90;;;;;;5022783;28;20488;-69
2022/09/30 05:51:05;;;;;;;12.93;10.33;;;8.10;99.90;;;;;;5010009;28;20512;-69
2022/09/30 05:53:31;;;;;;;13.67;10.50;;;8.20;99.90;;;;;;5008589;28;20553;-68
2022/09/30 05:55:57;;;;;;;11.10;9.70;;;8.40;99.90;;;;;;5009570;28;20477;-69
2022/09/30 05:58:23;;;;;;;11.90;10.80;;;8.60;99.90;;;;;;5002013;28;20450;-72
2022/09/30 06:00:49;;;;;;;10.33;9.33;;;8.80;99.90;;;;;;5007957;28;20205;-69
2022/09/30 06:03:16;;;;;;;10.27;8.53;;;9.10;99.90;;;;;;5006836;28;20473;-69
2022/09/30 06:05:41;;;;;;;10.93;8.50;;;9.30;99.90;;;;;;5010593;28;20461;-68
2022/09/30 06:08:07;;;;;;;10.13;9.13;;;9.50;99.90;;;;;;5005092;28;20441;-68
2022/09/30 06:10:34;;;;;;;10.77;8.23;;;9.60;99.90;;;;;;5012016;28;20186;-68
2022/09/30 06:13:02;;;;;;;11.40;9.30;;;9.90;99.90;;;;;;5009049;28;20182;-69
2022/09/30 06:15:28;;;;;;;11.23;9.57;;;10.00;99.90;;;;;;5008698;28;20465;-69
2022/09/30 06:17:53;;;;;;;9.50;8.40;;;10.20;99.90;;;;;;5010714;28;20519;-69
2022/09/30 06:20:19;;;;;;;12.27;9.57;;;10.50;99.90;;;;;;5008299;28;20269;-68
2022/09/30 06:22:45;;;;;;;10.60;9.50;;;10.60;99.90;;;;;;5009355;28;20206;-69
2022/09/30 06:25:10;;;;;;;9.17;8.30;;;10.70;99.90;;;;;;5009378;28;20218;-70
2022/09/30 06:27:37;;;;;;;11.10;10.00;;;11.00;99.90;;;;;;5009132;28;20185;-69
2022/09/30 06:30:04;;;;;;;9.83;8.83;;;11.40;99.90;;;;;;5012077;28;20178;-68
2022/09/30 06:32:29;;;;;;;10.40;9.00;;;11.80;99.90;;;;;;4993905;28;20461;-70
2022/09/30 06:34:55;;;;;;;8.73;7.83;;;12.30;99.90;;;;;;4979145;28;20488;-68
2022/09/30 06:37:22;;;;;;;9.87;8.90;;;12.10;99.90;;;;;;5008209;28;20208;-69
2022/09/30 06:39:49;;;;;;;10.07;7.70;;;12.10;99.90;;;;;;4995729;28;20182;-69
2022/09/30 06:42:15;;;;;;;9.73;8.93;;;12.00;99.90;;;;;;5003623;28;20456;-69
2022/09/30 06:44:41;;;;;;;10.10;9.10;;;12.10;99.90;;;;;;5006510;28;20474;-69
2022/09/30 06:47:07;;;;;;;12.93;10.93;;;12.10;99.90;;;;;;5008218;28;20955;-69
2022/09/30 06:49:33;;;;;;;14.93;10.03;;;12.30;99.90;;;;;;5007395;28;20191;-68
2022/09/30 06:52:00;;;;;;;12.73;10.43;;;12.40;99.90;;;;;;5001864;28;20458;-70
2022/09/30 06:54:27;;;;;;;16.93;13.10;;;12.50;99.90;;;;;;4995452;28;20509;-70
2022/09/30 06:56:56;;;;;;;11.10;8.90;;;12.60;99.90;;;;;;4995023;28;21214;-69
2022/09/30 06:59:25;;;;;;;10.37;9.47;;;12.70;99.90;;;;;;4990645;28;20940;-71
2022/09/30 07:01:51;;;;;;;14.23;9.67;;;12.60;99.90;;;;;;4995009;28;20559;-70
2022/09/30 07:04:17;;;;;;;11.00;9.03;;;12.50;99.90;;;;;;4997332;28;20461;-68
2022/09/30 07:06:43;;;;;;;9.50;8.50;;;12.40;99.90;;;;;;4994575;28;20511;-69
2022/09/30 07:09:09;;;;;;;10.90;9.83;;;12.30;99.90;;;;;;4994358;28;20183;-70
2022/09/30 07:11:36;;;;;;;14.13;11.03;;;12.30;99.90;;;;;;4992867;28;20210;-71
2022/09/30 07:14:03;;;;;;;12.50;11.20;;;12.30;99.90;;;;;;4991561;28;20441;-69
2022/09/30 07:16:30;;;;;;;15.47;13.63;;;12.40;99.90;;;;;;5001920;28;20448;-69
2022/09/30 07:18:58;;;;;;;13.07;11.67;;;12.40;99.90;;;;;;4997870;28;20511;-70
2022/09/30 07:21:23;;;;;;;15.00;12.30;;;12.50;99.90;;;;;;4989048;28;20538;-70
2022/09/30 07:23:51;;;;;;;13.80;12.50;;;12.40;99.90;;;;;;4988393;28;20442;-70
2022/09/30 07:26:19;;;;;;;15.63;14.20;;;12.40;99.90;;;;;;4991902;28;20182;-70
2022/09/30 07:28:46;;;;;;;20.67;12.67;;;12.60;99.90;;;;;;4993149;28;20559;-71
2022/09/30 07:31:15;;;;;;;16.30;12.87;;;12.40;99.90;;;;;;4993462;28;20839;-72
2022/09/30 07:33:41;;;;;;;18.43;13.87;;;12.30;99.90;;;;;;4991817;28;21389;-70
2022/09/30 07:36:08;;;;;;;15.50;13.83;;;11.80;99.90;;;;;;5005291;28;20492;-69
2022/09/30 07:38:37;;;;;;;22.33;13.17;;;11.60;99.90;;;;;;5009350;28;20443;-69
2022/09/30 07:41:06;;;;;;;13.23;11.83;;;11.70;99.90;;;;;;5010388;28;20506;-68
2022/09/30 07:43:38;;;;;;;16.27;13.93;;;11.80;99.90;;;;;;5006004;28;20480;-69
2022/09/30 07:46:04;;;;;;;15.00;13.50;;;12.00;99.90;;;;;;5012123;28;20461;-69
2022/09/30 07:49:05;;;;;;;12.23;10.57;;;12.10;99.90;;;;;;5012133;28;20451;-69
2022/09/30 07:51:33;;;;;;;14.63;12.97;;;12.10;99.90;;;;;;5008340;28;20240;-68
2022/09/30 07:54:08;;;;;;;14.83;13.33;;;12.20;99.90;;;;;;5010740;28;20476;-69
2022/09/30 07:56:37;;;;;;;17.40;15.57;;;11.80;99.90;;;;;;5010487;28;20934;-68
2022/09/30 07:59:03;;;;;;;18.63;15.90;;;11.60;99.90;;;;;;5010796;28;21201;-68
2022/09/30 08:01:30;;;;;;;19.60;13.77;;;11.60;99.90;;;;;;5008402;28;20470;-68
2022/09/30 08:03:57;;;;;;;16.10;13.70;;;11.50;99.90;;;;;;5006608;28;20451;-69
2022/09/30 08:06:25;;;;;;;14.33;12.87;;;11.40;99.90;;;;;;5008081;28;20449;-68
2022/09/30 08:08:54;;;;;;;16.10;14.43;;;11.50;99.90;;;;;;5008183;28;20854;-70
2022/09/30 08:11:20;;;;;;;16.80;14.50;;;11.50;99.90;;;;;;5007647;28;20473;-70
2022/09/30 08:13:53;;;;;;;19.97;15.20;;;11.40;99.90;;;;;;5010455;28;20477;-70
2022/09/30 08:16:20;;;;;;;14.80;13.23;;;11.40;99.90;;;;;;5009295;28;20464;-71
2022/09/30 08:18:46;;;;;;;17.90;16.10;;;11.50;99.90;;;;;;5008479;28;20491;-70
2022/09/30 08:21:11;;;;;;;18.70;14.73;;;11.50;99.90;;;;;;5009261;28;20473;-70
2022/09/30 08:23:37;;;;;;;18.30;15.30;;;11.50;99.90;;;;;;5009742;28;20604;-70
2022/09/30 08:26:05;;;;;;;21.57;15.67;;;11.80;99.90;;;;;;5008791;28;20462;-70
2022/09/30 08:28:31;;;;;;;15.50;13.77;;;12.10;99.90;;;;;;5009754;28;20274;-70
2022/09/30 08:31:09;;;;;;;17.63;14.87;;;12.30;99.90;;;;;;5007497;28;20612;-70
2022/09/30 08:33:34;;;;;;;16.10;14.50;;;12.60;99.90;;;;;;5007854;28;20190;-71
2022/09/30 08:36:05;;;;;;;16.87;14.97;;;12.80;99.90;;;;;;5009119;28;20469;-70
2022/09/30 08:38:31;;;;;;;17.10;15.53;;;13.00;99.90;;;;;;5007882;28;20187;-71
2022/09/30 08:41:32;;;;;;;18.03;16.20;;;13.00;99.90;;;;;;5013502;28;20564;-71
2022/09/30 08:44:12;;;;;;;19.40;17.53;;;12.90;99.90;;;;;;5008958;28;20438;-70
2022/09/30 08:47:19;;;;;;;21.00;18.53;;;13.00;99.90;;;;;;5009213;28;20845;-70
2022/09/30 08:50:04;;;;;;;20.77;17.60;;;13.20;99.90;;;;;;4994550;28;20484;-69
2022/09/30 08:52:44;;;;;;;19.20;17.13;;;13.10;99.90;;;;;;5009658;28;20445;-69
2022/09/30 08:55:22;;;;;;;19.37;16.33;;;13.50;99.90;;;;;;5005509;28;20564;-68
2022/09/30 08:57:49;;;;;;;20.17;16.30;;;14.40;99.90;;;;;;5008750;28;20437;-70
2022/09/30 09:00:17;;;;;;;15.60;13.20;;;15.20;99.90;;;;;;5008981;28;20485;-70
2022/09/30 09:02:48;;;;;;;17.40;15.70;;;16.30;99.90;;;;;;5005834;28;20527;-70
2022/09/30 09:05:22;;;;;;;15.23;13.73;;;17.60;99.90;;;;;;5003502;28;20473;-70
2022/09/30 09:08:01;;;;;;;15.87;14.47;;;18.90;99.90;;;;;;5009103;28;20513;-68
2022/09/30 09:10:32;;;;;;;15.27;13.93;;;19.90;99.90;;;;;;5009581;28;20815;-70
2022/09/30 09:13:08;;;;;;;15.77;14.17;;;20.10;99.90;;;;;;5006420;28;20445;-68
2022/09/30 09:15:40;;;;;;;12.97;11.77;;;20.80;99.90;;;;;;5007323;28;20468;-67
2022/09/30 09:18:47;;;;;;;10.97;10.07;;;21.90;99.90;;;;;;5009765;28;20528;-68
2022/09/30 09:21:37;;;;;;;11.60;10.60;;;22.30;99.60;;;;;;5006618;28;20473;-69
2022/09/30 09:24:10;;;;;;;10.37;9.47;;;22.70;97.50;;;;;;5004248;28;20511;-69
2022/09/30 09:26:36;;;;;;;16.47;11.23;;;22.30;97.90;;;;;;5011981;28;20528;-69
2022/09/30 09:29:40;;;;;;;10.57;9.67;;;23.00;96.00;;;;;;5007699;28;20475;-69
2022/09/30 09:32:12;;;;;;;11.77;9.70;;;23.20;94.70;;;;;;5002633;28;20549;-70
2022/09/30 09:34:40;;;;;;;12.50;11.40;;;23.20;94.30;;;;;;5009992;28;20457;-69
2022/09/30 09:37:21;;;;;;;9.70;8.80;;;24.10;93.30;;;;;;5009217;28;20441;-69
2022/09/30 09:40:02;;;;;;;9.27;8.57;;;24.80;91.40;;;;;;5007102;28;20480;-68
2022/09/30 09:42:45;;;;;;;10.27;9.23;;;25.60;88.40;;;;;;5003220;28;20499;-68
2022/09/30 09:45:29;;;;;;;8.90;8.10;;;24.90;86.10;;;;;;5010064;28;20481;-70
2022/09/30 09:47:59;;;;;;;9.30;8.50;;;24.20;85.80;;;;;;5004415;28;20445;-67
2022/09/30 09:50:37;;;;;;;9.93;9.13;;;23.20;86.40;;;;;;5007187;28;20445;-67
2022/09/30 09:53:21;;;;;;;10.30;8.80;;;22.90;90.60;;;;;;5009080;28;20802;-67
2022/09/30 09:55:52;;;;;;;10.57;8.73;;;24.20;86.90;;;;;;5006620;28;21275;-68
2022/09/30 09:58:18;;;;;;;9.70;8.87;;;24.70;84.50;;;;;;5008467;28;20581;-69
2022/09/30 10:03:20;;;;;;;10.50;9.50;;;25.10;80.80;;;;;;5001418;28;20179;-68
2022/09/30 10:06:07;;;;;;;9.97;8.97;;;25.10;79.90;;;;;;5005714;28;20623;-68
2022/09/30 10:08:35;;;;;;;9.17;8.40;;;24.60;79.80;;;;;;5009151;28;20465;-68
2022/09/30 10:11:06;;;;;;;10.97;10.00;;;24.30;81.20;;;;;;5001554;28;20438;-67
2022/09/30 10:13:41;;;;;;;10.80;9.90;;;23.70;82.60;;;;;;5008558;28;20442;-71
2022/09/30 10:16:25;;;;;;;11.30;10.27;;;23.30;83.60;;;;;;5001604;28;20491;-68
2022/09/30 10:18:50;;;;;;;10.47;9.47;;;22.40;84.20;;;;;;5008033;28;20533;-68
2022/09/30 10:21:25;;;;;;;10.00;9.30;;;23.70;84.40;;;;;;5008641;28;20627;-66
2022/09/30 10:23:50;;;;;;;9.17;8.47;;;25.90;80.60;;;;;;5005163;28;20170;-66
2022/09/30 10:26:17;;;;;;;9.60;8.70;;;27.40;78.20;;;;;;5010916;28;20430;-67
2022/09/30 10:29:12;;;;;;;9.40;8.60;;;28.10;73.70;;;;;;5006602;28;20178;-66
2022/09/30 10:31:43;;;;;;;15.30;10.37;;;28.30;68.20;;;;;;5010928;28;20437;-67
2022/09/30 10:34:11;;;;;;;10.33;9.40;;;26.40;67.80;;;;;;5009617;28;20499;-67
2022/09/30 10:36:39;;;;;;;9.00;8.10;;;24.80;73.30;;;;;;5012483;28;20433;-68
2022/09/30 10:39:08;;;;;;;10.40;8.30;;;26.10;70.40;;;;;;5006449;28;20540;-68
2022/09/30 10:41:37;;;;;;;7.90;7.20;;;27.30;68.70;;;;;;5011565;28;20584;-68
2022/09/30 10:44:22;;;;;;;7.47;6.80;;;29.60;64.20;;;;;;5006512;28;20452;-69
2022/09/30 10:46:52;;;;;;;8.73;7.73;;;32.20;59.30;;;;;;5009664;28;20477;-67
2022/09/30 10:49:26;;;;;;;8.20;7.50;;;30.40;57.20;;;;;;5000614;28;20493;-68
2022/09/30 10:51:52;;;;;;;7.40;6.80;;;29.50;57.70;;;;;;5004196;28;20479;-68
2022/09/30 10:54:47;;;;;;;5.83;5.43;;;30.60;57.80;;;;;;5009680;28;20564;-68
2022/09/30 10:57:23;;;;;;;5.80;5.30;;;31.70;53.90;;;;;;5002110;28;20803;-68
2022/09/30 10:59:53;;;;;;;8.00;5.93;;;32.90;51.70;;;;;;5015451;28;20459;-68
2022/09/30 11:02:40;;;;;;;4.73;4.23;;;30.30;50.60;;;;;;5006752;28;20451;-68
2022/09/30 11:05:21;;;;;;;6.60;5.37;;;30.00;52.80;;;;;;5007683;28;20464;-68
2022/09/30 11:07:56;;;;;;;5.57;4.83;;;31.70;50.90;;;;;;5008443;28;20508;-69
2022/09/30 11:10:40;;;;;;;5.47;5.10;;;31.20;51.00;;;;;;5012322;28;20448;-69
2022/09/30 11:13:23;;;;;;;6.87;4.97;;;30.60;51.20;;;;;;5003955;28;20445;-68
2022/09/30 11:15:56;;;;;;;4.63;4.10;;;30.60;49.10;;;;;;5004116;28;20515;-68
2022/09/30 11:18:33;;;;;;;6.17;5.67;;;30.80;50.40;;;;;;5010116;28;20442;-68
2022/09/30 11:21:04;;;;;;;5.30;4.30;;;31.60;48.20;;;;;;5003527;28;20466;-68
2022/09/30 11:23:47;;;;;;;5.80;4.60;;;32.40;47.70;;;;;;5007102;28;20469;-69
2022/09/30 11:26:34;;;;;;;4.50;4.20;;;32.90;47.00;;;;;;5019369;28;20599;-69
2022/09/30 11:29:37;;;;;;;4.50;4.10;;;33.50;44.60;;;;;;5020740;28;20436;-68
2022/09/30 11:32:23;;;;;;;4.57;4.17;;;34.60;42.90;;;;;;5016740;28;20445;-68
2022/09/30 11:35:19;;;;;;;4.00;3.70;;;33.80;42.30;;;;;;5013737;28;20495;-69
2022/09/30 11:37:59;;;;;;;3.97;3.67;;;33.50;37.40;;;;;;5020053;28;20486;-68
2022/09/30 11:40:35;;;;;;;4.33;3.60;;;29.70;38.20;;;;;;5013788;28;20495;-68
2022/09/30 11:43:15;;;;;;;4.30;4.00;;;28.40;40.10;;;;;;5018766;28;20428;-68
2022/09/30 11:46:05;;;;;;;3.93;3.63;;;30.60;39.60;;;;;;5019680;28;20547;-68
2022/09/30 11:48:30;;;;;;;3.97;3.57;;;31.30;39.40;;;;;;5019406;28;20974;-69
2022/09/30 11:51:17;;;;;;;4.97;4.47;;;33.20;38.20;;;;;;5019590;28;20437;-68
2022/09/30 11:54:17;;;;;;;8.70;8.10;;;32.30;36.80;;;;;;5010040;28;20235;-68
2022/09/30 11:56:56;;;;;;;3.80;3.50;;;33.00;37.30;;;;;;5017293;28;20433;-67
2022/09/30 11:59:31;;;;;;;5.60;4.50;;;35.10;35.60;;;;;;5013014;28;20780;-68
2022/09/30 12:02:01;;;;;;;3.00;2.67;;;35.60;34.30;;;;;;5014076;28;20449;-69
2022/09/30 12:04:39;;;;;;;3.43;2.83;;;35.50;33.80;;;;;;5004350;28;20529;-68
2022/09/30 12:07:19;;;;;;;3.30;3.03;;;36.00;33.70;;;;;;5011243;28;20442;-70
2022/09/30 12:09:50;;;;;;;2.93;2.73;;;36.20;32.20;;;;;;5011522;28;21024;-69
2022/09/30 12:12:19;;;;;;;3.80;3.50;;;36.40;32.40;;;;;;5017448;28;20881;-69
2022/09/30 12:14:53;;;;;;;2.40;2.20;;;36.30;31.90;;;;;;5013573;28;20491;-69
2022/09/30 12:17:31;;;;;;;2.87;2.43;;;37.30;30.30;;;;;;5014460;28;20843;-71
2022/09/30 12:20:01;;;;;;;4.70;2.50;;;37.50;29.80;;;;;;5008476;28;20793;-68
2022/09/30 12:22:41;;;;;;;4.77;4.27;;;36.60;28.80;;;;;;5007361;28;20434;-68
2022/09/30 12:25:21;;;;;;;3.13;2.83;;;36.70;29.40;;;;;;5008183;28;20453;-68
2022/09/30 12:27:55;;;;;;;2.80;2.60;;;37.60;29.20;;;;;;5009102;28;21259;-67
2022/09/30 12:30:22;;;;;;;3.33;2.43;;;38.20;27.80;;;;;;5007731;28;20499;-69
2022/09/30 12:33:09;;;;;;;3.33;3.03;;;38.40;27.50;;;;;;5002859;28;20438;-68
2022/09/30 12:36:02;;;;;;;3.60;2.70;;;39.00;27.10;;;;;;5010335;28;20460;-69
2022/09/30 12:38:37;;;;;;;3.50;2.43;;;39.00;26.40;;;;;;5001576;28;20512;-69
2022/09/30 12:41:06;;;;;;;2.73;2.53;;;34.10;28.70;;;;;;5004093;28;20952;-68
2022/09/30 12:44:01;;;;;;;3.07;2.40;;;34.00;29.20;;;;;;5007518;28;20520;-68
2022/09/30 12:47:06;;;;;;;5.73;3.67;;;31.70;30.50;;;;;;5007781;28;20464;-69
2022/09/30 12:49:32;;;;;;;2.53;2.17;;;32.80;30.50;;;;;;5007431;28;20531;-67
2022/09/30 12:52:04;;;;;;;2.40;1.90;;;33.20;30.20;;;;;;5007359;28;20458;-69
2022/09/30 12:54:37;;;;;;;2.30;2.10;;;31.20;30.50;;;;;;5008483;28;20480;-68
2022/09/30 12:57:07;;;;;;;2.07;1.97;;;28.40;33.50;;;;;;5012696;28;20449;-68
2022/09/30 12:59:37;;;;;;;2.63;2.43;;;27.20;35.00;;;;;;5008096;28;20433;-67
2022/09/30 13:02:05;;;;;;;2.00;1.83;;;25.40;37.20;;;;;;5002477;28;20449;-67
2022/09/30 13:04:33;;;;;;;1.90;1.80;;;23.40;40.00;;;;;;5006705;28;20532;-68
2022/09/30 13:06:58;;;;;;;1.73;1.60;;;21.90;43.50;;;;;;5010511;28;20471;-69
2022/09/30 13:09:36;;;;;;;3.00;2.13;;;21.90;43.30;;;;;;5009800;28;20523;-68
2022/09/30 13:12:01;;;;;;;1.93;1.43;;;21.50;43.40;;;;;;5002635;28;20234;-70
2022/09/30 13:14:31;;;;;;;4.80;2.00;;;21.10;44.20;;;;;;5009194;28;20500;-71
2022/09/30 13:17:07;;;;;;;1.90;1.80;;;21.10;45.10;;;;;;5010559;28;20178;-70
2022/09/30 13:19:39;;;;;;;4.03;2.00;;;20.80;45.70;;;;;;5011579;28;21123;-68